PWSweather.com
Personal Weather Stations
Station Observations
KMIEASTT1
Tawas Bay, East Tawas, MI 48730

Tawas BayEast Tawas, MI 48730

Lat: 44.28, Lon: -83.48

Elevation: 600

Station Type: Davis VantagePro

http://www.tawasbayweather.com

High Low Average
Temperature 40.5°F4.7°C 34.6°F1.4°C 36.8°F2.7°C
Dew Point 34.8°F1.6°C 19.6°F-6.9°C 28.4°F-2.0°C
Winds 9.0 mph 14.5 kmh Calm Calm 5.0 mph SW8.0 kmh SW
Wind Gusts 10.0 mph16.1 kmh -- 6.0 mph9.7 kmh
Humidity 82% 53% 72%
Pressure 30.27 in1025.1 mb 30.14 in1020.7 mb -
Precipitation 0.00 in0.0 mm - -
Hour Temp Dew Point Humidity Winds Wind Gusts Pressure Precip Precip Rate Daily Precip Total
12:01 AM 35.4°F1.9°C 20.4°F-6.4°C 54% 6.0 mph NW9.7 kmh NW 7.0 mph11.3 kmh 30.14 in1020.7 mb 0.00 in0.0 mm 0.00 in/hr0.0 mm/hr 0.00 in0.0 mm
12:15 AM 35.3°F1.8°C 20.3°F-6.5°C 54% 3.0 mph NW4.8 kmh NW 9.0 mph14.5 kmh 30.15 in1021.0 mb 0.00 in0.0 mm 0.00 in/hr0.0 mm/hr 0.00 in0.0 mm
12:31 AM 35.1°F1.7°C 20.1°F-6.6°C 54% 4.0 mph WNW6.4 kmh WNW 8.0 mph12.9 kmh 30.15 in1021.0 mb 0.00 in0.0 mm 0.00 in/hr0.0 mm/hr 0.00 in0.0 mm
12:45 AM 35.0°F1.7°C 19.6°F-6.9°C 53% 3.0 mph W4.8 kmh W 8.0 mph12.9 kmh 30.15 in1021.0 mb 0.00 in0.0 mm 0.00 in/hr0.0 mm/hr 0.00 in0.0 mm
01:01 AM 35.1°F1.7°C 19.7°F-6.8°C 53% 3.0 mph SW4.8 kmh SW 7.0 mph11.3 kmh 30.16 in1021.3 mb 0.00 in0.0 mm 0.00 in/hr0.0 mm/hr 0.00 in0.0 mm
01:15 AM 35.0°F1.7°C 20.5°F-6.4°C 55% 3.0 mph W4.8 kmh W 6.0 mph9.7 kmh 30.16 in1021.3 mb 0.00 in0.0 mm 0.00 in/hr0.0 mm/hr 0.00 in0.0 mm
01:30 AM 34.9°F1.6°C 20.4°F-6.4°C 55% 4.0 mph W6.4 kmh W 5.0 mph8.0 kmh 30.15 in1021.0 mb 0.00 in0.0 mm 0.00 in/hr0.0 mm/hr 0.00 in0.0 mm
01:45 AM 35.2°F1.8°C 21.9°F-5.6°C 58% 3.0 mph WSW4.8 kmh WSW 4.0 mph6.4 kmh 30.16 in1021.3 mb 0.00 in0.0 mm 0.00 in/hr0.0 mm/hr 0.00 in0.0 mm
02:01 AM 35.7°F2.1°C 24.0°F-4.4°C 62% 5.0 mph W8.0 kmh W 5.0 mph8.0 kmh 30.16 in1021.3 mb 0.00 in0.0 mm 0.00 in/hr0.0 mm/hr 0.00 in0.0 mm
02:15 AM 35.4°F1.9°C 22.1°F-5.5°C 58% 1.0 mph SW1.6 kmh SW 5.0 mph8.0 kmh 30.17 in1021.7 mb 0.00 in0.0 mm 0.00 in/hr0.0 mm/hr 0.00 in0.0 mm
02:30 AM 35.1°F1.7°C 22.2°F-5.4°C 59% 5.0 mph W8.0 kmh W 5.0 mph8.0 kmh 30.18 in1022.0 mb 0.00 in0.0 mm 0.00 in/hr0.0 mm/hr 0.00 in0.0 mm
02:45 AM 35.1°F1.7°C 23.0°F-5.0°C 61% 3.0 mph SW4.8 kmh SW 4.0 mph6.4 kmh 30.17 in1021.7 mb 0.00 in0.0 mm 0.00 in/hr0.0 mm/hr 0.00 in0.0 mm
03:01 AM 35.2°F1.8°C 23.1°F-4.9°C 61% 6.0 mph NW9.7 kmh NW 8.0 mph12.9 kmh 30.18 in1022.0 mb 0.00 in0.0 mm 0.00 in/hr0.0 mm/hr 0.00 in0.0 mm
03:15 AM 35.1°F1.7°C 23.4°F-4.8°C 62% 3.0 mph WSW4.8 kmh WSW 4.0 mph6.4 kmh 30.18 in1022.0 mb 0.00 in0.0 mm 0.00 in/hr0.0 mm/hr 0.00 in0.0 mm
03:30 AM 35.6°F2.0°C 23.9°F-4.5°C 62% 3.0 mph SW4.8 kmh SW 4.0 mph6.4 kmh 30.19 in1022.4 mb 0.00 in0.0 mm 0.00 in/hr0.0 mm/hr 0.00 in0.0 mm
03:45 AM 35.6°F2.0°C 25.0°F-3.9°C 65% 5.0 mph WSW8.0 kmh WSW 8.0 mph12.9 kmh 30.19 in1022.4 mb 0.00 in0.0 mm 0.00 in/hr0.0 mm/hr 0.00 in0.0 mm
04:01 AM 35.1°F1.7°C 24.9°F-3.9°C 66% 5.0 mph WSW8.0 kmh WSW 6.0 mph9.7 kmh 30.20 in1022.7 mb 0.00 in0.0 mm 0.00 in/hr0.0 mm/hr 0.00 in0.0 mm
04:15 AM 35.1°F1.7°C 25.6°F-3.6°C 68% 5.0 mph SW8.0 kmh SW 6.0 mph9.7 kmh 30.20 in1022.7 mb 0.00 in0.0 mm 0.00 in/hr0.0 mm/hr 0.00 in0.0 mm
04:30 AM 34.9°F1.6°C 24.7°F-4.1°C 66% 4.0 mph SW6.4 kmh SW 5.0 mph8.0 kmh 30.19 in1022.4 mb 0.00 in0.0 mm 0.00 in/hr0.0 mm/hr 0.00 in0.0 mm
04:45 AM 35.0°F1.7°C 26.2°F-3.2°C 70% 3.0 mph SW4.8 kmh SW 5.0 mph8.0 kmh 30.19 in1022.4 mb 0.00 in0.0 mm 0.00 in/hr0.0 mm/hr 0.00 in0.0 mm
05:01 AM 34.9°F1.6°C 25.4°F-3.7°C 68% 3.0 mph WSW4.8 kmh WSW 5.0 mph8.0 kmh 30.20 in1022.7 mb 0.00 in0.0 mm 0.00 in/hr0.0 mm/hr 0.00 in0.0 mm
05:15 AM 34.6°F1.4°C 24.4°F-4.2°C 66% Calm Calm 2.0 mph3.2 kmh 30.20 in1022.7 mb 0.00 in0.0 mm 0.00 in/hr0.0 mm/hr 0.00 in0.0 mm
05:30 AM 34.8°F1.6°C 25.7°F-3.5°C 69% 1.0 mph WSW1.6 kmh WSW 2.0 mph3.2 kmh 30.21 in1023.0 mb 0.00 in0.0 mm 0.00 in/hr0.0 mm/hr 0.00 in0.0 mm
05:45 AM 35.2°F1.8°C 24.6°F-4.1°C 65% 3.0 mph SSW4.8 kmh SSW 4.0 mph6.4 kmh 30.21 in1023.0 mb 0.00 in0.0 mm 0.00 in/hr0.0 mm/hr 0.00 in0.0 mm
06:00 AM 35.6°F2.0°C 25.7°F-3.5°C 67% 4.0 mph SW6.4 kmh SW 5.0 mph8.0 kmh 30.21 in1023.0 mb 0.00 in0.0 mm 0.00 in/hr0.0 mm/hr 0.00 in0.0 mm
06:15 AM 36.0°F2.2°C 27.9°F-2.3°C 72% 5.0 mph S8.0 kmh S 7.0 mph11.3 kmh 30.21 in1023.0 mb 0.00 in0.0 mm 0.00 in/hr0.0 mm/hr 0.00 in0.0 mm
06:30 AM 36.2°F2.3°C 28.4°F-2.0°C 73% 5.0 mph S8.0 kmh S 7.0 mph11.3 kmh 30.21 in1023.0 mb 0.00 in0.0 mm 0.00 in/hr0.0 mm/hr 0.00 in0.0 mm
06:45 AM 36.2°F2.3°C 28.4°F-2.0°C 73% 6.0 mph SSW9.7 kmh SSW 7.0 mph11.3 kmh 30.22 in1023.4 mb 0.00 in0.0 mm 0.00 in/hr0.0 mm/hr 0.00 in0.0 mm
07:01 AM 36.2°F2.3°C 29.1°F-1.6°C 75% 8.0 mph SW12.9 kmh SW 10.0 mph16.1 kmh 30.22 in1023.4 mb 0.00 in0.0 mm 0.00 in/hr0.0 mm/hr 0.00 in0.0 mm
07:15 AM 35.1°F1.7°C 28.0°F-2.2°C 75% 9.0 mph SW14.5 kmh SW 9.0 mph14.5 kmh 30.22 in1023.4 mb 0.00 in0.0 mm 0.00 in/hr0.0 mm/hr 0.00 in0.0 mm
07:31 AM 34.6°F1.4°C 28.1°F-2.2°C 77% 5.0 mph SW8.0 kmh SW 8.0 mph12.9 kmh 30.23 in1023.7 mb 0.00 in0.0 mm 0.00 in/hr0.0 mm/hr 0.00 in0.0 mm
07:45 AM 34.8°F1.6°C 28.3°F-2.1°C 77% 7.0 mph SW11.3 kmh SW 9.0 mph14.5 kmh 30.23 in1023.7 mb 0.00 in0.0 mm 0.00 in/hr0.0 mm/hr 0.00 in0.0 mm
08:01 AM 35.1°F1.7°C 29.3°F-1.5°C 79% 9.0 mph SW14.5 kmh SW 10.0 mph16.1 kmh 30.23 in1023.7 mb 0.00 in0.0 mm 0.00 in/hr0.0 mm/hr 0.00 in0.0 mm
08:15 AM 35.1°F1.7°C 29.3°F-1.5°C 79% 8.0 mph WSW12.9 kmh WSW 10.0 mph16.1 kmh 30.23 in1023.7 mb 0.00 in0.0 mm 0.00 in/hr0.0 mm/hr 0.00 in0.0 mm
08:30 AM 34.8°F1.6°C 29.0°F-1.7°C 79% 7.0 mph SW11.3 kmh SW 9.0 mph14.5 kmh 30.24 in1024.0 mb 0.00 in0.0 mm 0.00 in/hr0.0 mm/hr 0.00 in0.0 mm
08:46 AM 35.0°F1.7°C 28.9°F-1.7°C 78% 7.0 mph SW11.3 kmh SW 10.0 mph16.1 kmh 30.24 in1024.0 mb 0.00 in0.0 mm 0.00 in/hr0.0 mm/hr 0.00 in0.0 mm
09:01 AM 35.2°F1.8°C 29.4°F-1.4°C 79% 7.0 mph SSW11.3 kmh SSW 8.0 mph12.9 kmh 30.25 in1024.4 mb 0.00 in0.0 mm 0.00 in/hr0.0 mm/hr 0.00 in0.0 mm
09:16 AM 35.1°F1.7°C 28.6°F-1.9°C 77% 6.0 mph SW9.7 kmh SW 7.0 mph11.3 kmh 30.25 in1024.4 mb 0.00 in0.0 mm 0.00 in/hr0.0 mm/hr 0.00 in0.0 mm
09:30 AM 35.2°F1.8°C 28.7°F-1.8°C 77% 6.0 mph SW9.7 kmh SW 8.0 mph12.9 kmh 30.25 in1024.4 mb 0.00 in0.0 mm 0.00 in/hr0.0 mm/hr 0.00 in0.0 mm
09:45 AM 35.2°F1.8°C 29.0°F-1.7°C 78% 7.0 mph SW11.3 kmh SW 7.0 mph11.3 kmh 30.25 in1024.4 mb 0.00 in0.0 mm 0.00 in/hr0.0 mm/hr 0.00 in0.0 mm
10:01 AM 35.4°F1.9°C 28.9°F-1.7°C 77% 7.0 mph SW11.3 kmh SW 8.0 mph12.9 kmh 30.26 in1024.7 mb 0.00 in0.0 mm 0.00 in/hr0.0 mm/hr 0.00 in0.0 mm
10:16 AM 35.4°F1.9°C 29.2°F-1.6°C 78% 5.0 mph SW8.0 kmh SW 6.0 mph9.7 kmh 30.26 in1024.7 mb 0.00 in0.0 mm 0.00 in/hr0.0 mm/hr 0.00 in0.0 mm
10:30 AM 35.9°F2.2°C 29.1°F-1.6°C 76% 5.0 mph WSW8.0 kmh WSW 8.0 mph12.9 kmh 30.26 in1024.7 mb 0.00 in0.0 mm 0.00 in/hr0.0 mm/hr 0.00 in0.0 mm
10:46 AM 36.2°F2.3°C 29.4°F-1.4°C 76% 5.0 mph WSW8.0 kmh WSW 8.0 mph12.9 kmh 30.27 in1025.1 mb 0.00 in0.0 mm 0.00 in/hr0.0 mm/hr 0.00 in0.0 mm
11:01 AM 36.4°F2.4°C 29.6°F-1.3°C 76% 4.0 mph WSW6.4 kmh WSW 6.0 mph9.7 kmh 30.26 in1024.7 mb 0.00 in0.0 mm 0.00 in/hr0.0 mm/hr 0.00 in0.0 mm
11:15 AM 36.9°F2.7°C 30.1°F-1.1°C 76% 5.0 mph SW8.0 kmh SW 6.0 mph9.7 kmh 30.25 in1024.4 mb 0.00 in0.0 mm 0.00 in/hr0.0 mm/hr 0.00 in0.0 mm
11:30 AM 37.1°F2.8°C 29.6°F-1.3°C 74% 4.0 mph SW6.4 kmh SW 6.0 mph9.7 kmh 30.26 in1024.7 mb 0.00 in0.0 mm 0.00 in/hr0.0 mm/hr 0.00 in0.0 mm
11:45 AM 37.4°F3.0°C 29.9°F-1.2°C 74% 4.0 mph SW6.4 kmh SW 5.0 mph8.0 kmh 30.25 in1024.4 mb 0.00 in0.0 mm 0.00 in/hr0.0 mm/hr 0.00 in0.0 mm
12:02 PM 37.8°F3.2°C 30.3°F-0.9°C 74% 5.0 mph WSW8.0 kmh WSW 7.0 mph11.3 kmh 30.25 in1024.4 mb 0.00 in0.0 mm 0.00 in/hr0.0 mm/hr 0.00 in0.0 mm
12:16 PM 38.1°F3.4°C 30.6°F-0.8°C 74% 4.0 mph SW6.4 kmh SW 6.0 mph9.7 kmh 30.24 in1024.0 mb 0.00 in0.0 mm 0.00 in/hr0.0 mm/hr 0.00 in0.0 mm
12:30 PM 38.0°F3.3°C 31.1°F-0.5°C 76% 4.0 mph SSW6.4 kmh SSW 7.0 mph11.3 kmh 30.23 in1023.7 mb 0.00 in0.0 mm 0.00 in/hr0.0 mm/hr 0.00 in0.0 mm
12:46 PM 38.0°F3.3°C 31.4°F-0.3°C 77% 5.0 mph SSW8.0 kmh SSW 7.0 mph11.3 kmh 30.23 in1023.7 mb 0.00 in0.0 mm 0.00 in/hr0.0 mm/hr 0.00 in0.0 mm
01:01 PM 38.5°F3.6°C 32.6°F0.3°C 79% 5.0 mph S8.0 kmh S 6.0 mph9.7 kmh 30.23 in1023.7 mb 0.00 in0.0 mm 0.00 in/hr0.0 mm/hr 0.00 in0.0 mm
01:16 PM 38.9°F3.8°C 32.3°F0.2°C 77% 7.0 mph SSW11.3 kmh SSW 7.0 mph11.3 kmh 30.22 in1023.4 mb 0.00 in0.0 mm 0.00 in/hr0.0 mm/hr 0.00 in0.0 mm
01:31 PM 39.1°F3.9°C 32.8°F0.4°C 78% 6.0 mph SSW9.7 kmh SSW 7.0 mph11.3 kmh 30.22 in1023.4 mb 0.00 in0.0 mm 0.00 in/hr0.0 mm/hr 0.00 in0.0 mm
01:45 PM 39.0°F3.9°C 33.1°F0.6°C 79% 6.0 mph SW9.7 kmh SW 9.0 mph14.5 kmh 30.22 in1023.4 mb 0.00 in0.0 mm 0.00 in/hr0.0 mm/hr 0.00 in0.0 mm
02:02 PM 39.0°F3.9°C 32.7°F0.4°C 78% 7.0 mph SSW11.3 kmh SSW 8.0 mph12.9 kmh 30.22 in1023.4 mb 0.00 in0.0 mm 0.00 in/hr0.0 mm/hr 0.00 in0.0 mm
02:16 PM 39.3°F4.1°C 32.7°F0.4°C 77% 7.0 mph SSW11.3 kmh SSW 8.0 mph12.9 kmh 30.22 in1023.4 mb 0.00 in0.0 mm 0.00 in/hr0.0 mm/hr 0.00 in0.0 mm
02:31 PM 39.7°F4.3°C 33.1°F0.6°C 77% 5.0 mph SSW8.0 kmh SSW 7.0 mph11.3 kmh 30.21 in1023.0 mb 0.00 in0.0 mm 0.00 in/hr0.0 mm/hr 0.00 in0.0 mm
02:46 PM 39.9°F4.4°C 33.0°F0.6°C 76% 6.0 mph SSW9.7 kmh SSW 7.0 mph11.3 kmh 30.21 in1023.0 mb 0.00 in0.0 mm 0.00 in/hr0.0 mm/hr 0.00 in0.0 mm
03:02 PM 40.0°F4.4°C 33.4°F0.8°C 77% 7.0 mph SW11.3 kmh SW 7.0 mph11.3 kmh 30.22 in1023.4 mb 0.00 in0.0 mm 0.00 in/hr0.0 mm/hr 0.00 in0.0 mm
03:16 PM 39.9°F4.4°C 33.6°F0.9°C 78% 6.0 mph SSW9.7 kmh SSW 7.0 mph11.3 kmh 30.22 in1023.4 mb 0.00 in0.0 mm 0.00 in/hr0.0 mm/hr 0.00 in0.0 mm
03:30 PM 40.2°F4.6°C 33.9°F1.1°C 78% 5.0 mph SW8.0 kmh SW 7.0 mph11.3 kmh 30.22 in1023.4 mb 0.00 in0.0 mm 0.00 in/hr0.0 mm/hr 0.00 in0.0 mm
03:46 PM 40.5°F4.7°C 32.9°F0.5°C 74% 5.0 mph SW8.0 kmh SW 6.0 mph9.7 kmh 30.22 in1023.4 mb 0.00 in0.0 mm 0.00 in/hr0.0 mm/hr 0.00 in0.0 mm
04:01 PM 40.1°F4.5°C 34.8°F1.6°C 81% 7.0 mph SSW11.3 kmh SSW 7.0 mph11.3 kmh 30.23 in1023.7 mb 0.00 in0.0 mm 0.00 in/hr0.0 mm/hr 0.00 in0.0 mm
04:16 PM 39.8°F4.3°C 34.5°F1.4°C 81% 7.0 mph SW11.3 kmh SW 9.0 mph14.5 kmh 30.24 in1024.0 mb 0.00 in0.0 mm 0.00 in/hr0.0 mm/hr 0.00 in0.0 mm
04:31 PM 39.8°F4.3°C 34.8°F1.6°C 82% 7.0 mph SW11.3 kmh SW 8.0 mph12.9 kmh 30.24 in1024.0 mb 0.00 in0.0 mm 0.00 in/hr0.0 mm/hr 0.00 in0.0 mm
04:46 PM 39.9°F4.4°C 34.6°F1.4°C 81% 5.0 mph SW8.0 kmh SW 7.0 mph11.3 kmh 30.24 in1024.0 mb 0.00 in0.0 mm 0.00 in/hr0.0 mm/hr 0.00 in0.0 mm
05:01 PM 39.8°F4.3°C 34.5°F1.4°C 81% 5.0 mph WSW8.0 kmh WSW 7.0 mph11.3 kmh 30.24 in1024.0 mb 0.00 in0.0 mm 0.00 in/hr0.0 mm/hr 0.00 in0.0 mm
05:16 PM 39.5°F4.2°C 32.9°F0.5°C 77% 2.0 mph WNW3.2 kmh WNW 3.0 mph4.8 kmh 30.25 in1024.4 mb 0.00 in0.0 mm 0.00 in/hr0.0 mm/hr 0.00 in0.0 mm
05:30 PM 39.4°F4.1°C 32.8°F0.4°C 77% Calm Calm -- 30.25 in1024.4 mb 0.00 in0.0 mm 0.00 in/hr0.0 mm/hr 0.00 in0.0 mm
05:46 PM 39.6°F4.2°C 32.3°F0.2°C 75% Calm Calm 2.0 mph3.2 kmh 30.25 in1024.4 mb 0.00 in0.0 mm 0.00 in/hr0.0 mm/hr 0.00 in0.0 mm
06:01 PM 39.5°F4.2°C 32.3°F0.2°C 75% 3.0 mph WSW4.8 kmh WSW 3.0 mph4.8 kmh 30.26 in1024.7 mb 0.00 in0.0 mm 0.00 in/hr0.0 mm/hr 0.00 in0.0 mm
06:15 PM 39.3°F4.1°C 32.1°F0.1°C 75% 2.0 mph WSW3.2 kmh WSW 5.0 mph8.0 kmh 30.25 in1024.4 mb 0.00 in0.0 mm 0.00 in/hr0.0 mm/hr 0.00 in0.0 mm
06:31 PM 39.2°F4.0°C 33.3°F0.7°C 79% 3.0 mph WSW4.8 kmh WSW 3.0 mph4.8 kmh 30.26 in1024.7 mb 0.00 in0.0 mm 0.00 in/hr0.0 mm/hr 0.00 in0.0 mm
06:45 PM 39.0°F3.9°C 33.4°F0.8°C 80% 2.0 mph SW3.2 kmh SW 4.0 mph6.4 kmh 30.26 in1024.7 mb 0.00 in0.0 mm 0.00 in/hr0.0 mm/hr 0.00 in0.0 mm
07:01 PM 38.9°F3.8°C 34.5°F1.4°C 84% 4.0 mph SW6.4 kmh SW 5.0 mph8.0 kmh 30.26 in1024.7 mb 0.00 in0.0 mm 0.00 in/hr0.0 mm/hr 0.00 in0.0 mm
07:15 PM 38.6°F3.7°C 34.5°F1.4°C 85% 2.0 mph WSW3.2 kmh WSW 4.0 mph6.4 kmh 30.26 in1024.7 mb 0.00 in0.0 mm 0.00 in/hr0.0 mm/hr 0.00 in0.0 mm
07:31 PM 38.3°F3.5°C 33.9°F1.1°C 84% Calm Calm 1.0 mph1.6 kmh 30.26 in1024.7 mb 0.00 in0.0 mm 0.00 in/hr0.0 mm/hr 0.00 in0.0 mm
07:45 PM 38.4°F3.6°C 33.7°F0.9°C 83% Calm Calm -- 30.25 in1024.4 mb 0.00 in0.0 mm 0.00 in/hr0.0 mm/hr 0.00 in0.0 mm
08:01 PM 38.7°F3.7°C 33.4°F0.8°C 81% Calm Calm 1.0 mph1.6 kmh 30.25 in1024.4 mb 0.00 in0.0 mm 0.00 in/hr0.0 mm/hr 0.00 in0.0 mm
08:16 PM 38.6°F3.7°C 33.0°F0.6°C 80% Calm Calm 2.0 mph3.2 kmh 30.25 in1024.4 mb 0.00 in0.0 mm 0.00 in/hr0.0 mm/hr 0.00 in0.0 mm
08:31 PM 38.4°F3.6°C 33.1°F0.6°C 81% Calm Calm 1.0 mph1.6 kmh 30.26 in1024.7 mb 0.00 in0.0 mm 0.00 in/hr0.0 mm/hr 0.00 in0.0 mm
08:45 PM 38.2°F3.4°C 32.6°F0.3°C 80% 1.0 mph WSW1.6 kmh WSW 2.0 mph3.2 kmh 30.25 in1024.4 mb 0.00 in0.0 mm 0.00 in/hr0.0 mm/hr 0.00 in0.0 mm
09:01 PM 37.7°F3.2°C 32.7°F0.4°C 82% Calm Calm 2.0 mph3.2 kmh 30.25 in1024.4 mb 0.00 in0.0 mm 0.00 in/hr0.0 mm/hr 0.00 in0.0 mm
09:15 PM 37.6°F3.1°C 32.9°F0.5°C 83% Calm Calm 2.0 mph3.2 kmh 30.25 in1024.4 mb 0.00 in0.0 mm 0.00 in/hr0.0 mm/hr 0.00 in0.0 mm
09:30 PM 37.7°F3.2°C 33.3°F0.7°C 84% 1.0 mph NNW1.6 kmh NNW 2.0 mph3.2 kmh 30.25 in1024.4 mb 0.00 in0.0 mm 0.00 in/hr0.0 mm/hr 0.00 in0.0 mm
09:46 PM 36.3°F2.4°C 32.5°F0.3°C 86% 2.0 mph N3.2 kmh N 5.0 mph8.0 kmh 30.26 in1024.7 mb 0.00 in0.0 mm 0.00 in/hr0.0 mm/hr 0.00 in0.0 mm
10:01 PM 34.8°F1.6°C 31.9°F-0.1°C 89% 2.0 mph NNW3.2 kmh NNW 6.0 mph9.7 kmh 30.26 in1024.7 mb 0.00 in0.0 mm 0.00 in/hr0.0 mm/hr 0.00 in0.0 mm
10:15 PM 34.3°F1.3°C 31.7°F-0.2°C 90% 2.0 mph NNW3.2 kmh NNW 4.0 mph6.4 kmh 30.27 in1025.1 mb 0.00 in0.0 mm 0.00 in/hr0.0 mm/hr 0.00 in0.0 mm
10:30 PM 34.0°F1.1°C 31.7°F-0.2°C 91% 2.0 mph N3.2 kmh N 4.0 mph6.4 kmh 30.27 in1025.1 mb 0.00 in0.0 mm 0.00 in/hr0.0 mm/hr 0.00 in0.0 mm
10:46 PM 33.9°F1.1°C 31.6°F-0.2°C 91% 2.0 mph NW3.2 kmh NW 4.0 mph6.4 kmh 30.26 in1024.7 mb 0.00 in0.0 mm 0.00 in/hr0.0 mm/hr 0.00 in0.0 mm
11:01 PM 33.5°F0.8°C 31.4°F-0.3°C 92% 1.0 mph NNW1.6 kmh NNW 4.0 mph6.4 kmh 30.27 in1025.1 mb 0.00 in0.0 mm 0.00 in/hr0.0 mm/hr 0.00 in0.0 mm
11:16 PM 33.4°F0.8°C 31.3°F-0.4°C 92% 2.0 mph NW3.2 kmh NW 5.0 mph8.0 kmh 30.26 in1024.7 mb 0.00 in0.0 mm 0.00 in/hr0.0 mm/hr 0.00 in0.0 mm
11:30 PM 33.3°F0.7°C 31.5°F-0.3°C 93% Calm Calm 3.0 mph4.8 kmh 30.27 in1025.1 mb 0.00 in0.0 mm 0.00 in/hr0.0 mm/hr 0.00 in0.0 mm
11:45 PM 33.3°F0.7°C 31.5°F-0.3°C 93% 1.0 mph NNW1.6 kmh NNW 4.0 mph6.4 kmh 30.27 in1025.1 mb 0.00 in0.0 mm 0.00 in/hr0.0 mm/hr 0.00 in0.0 mm